Time;durP1;ratioP1;P1;durP2;ratioP2;P2;SDS_P1;SDS_P2;PMS_P1;PMS_P2;Temp;Humidity;BMP_temperature;BMP_pressure;BME280_temperature;BME280_humidity;BME280_pressure;Samples;Min_cycle;Max_cycle;Signal;HPM_P1;HPM_P2
2021/12/06 00:02:11;;;;;;;;;24.50;23.50;;;;;4.53;99.30;101213.03;5022318;28;11523;-67
2021/12/06 00:04:38;;;;;;;;;30.25;27.75;;;;;4.54;99.24;101205.84;5009610;28;11697;-67
2021/12/06 00:07:09;;;;;;;;;37.50;29.50;;;;;4.51;99.27;101214.16;5029810;28;12234;-68
2021/12/06 00:09:36;;;;;;;;;34.00;26.75;;;;;4.53;99.10;101217.53;5028817;28;11495;-68
2021/12/06 00:12:03;;;;;;;;;42.75;38.00;;;;;4.54;99.04;101217.41;5029257;28;11533;-70
2021/12/06 00:14:34;;;;;;;;;31.50;29.25;;;;;4.59;99.28;101225.00;5028660;28;11519;-68
2021/12/06 00:17:08;;;;;;;;;27.25;23.25;;;;;4.65;99.01;101224.44;5028468;28;11525;-69
2021/12/06 00:19:36;;;;;;;;;32.25;29.25;;;;;4.53;98.51;101237.16;5029507;28;11521;-68
2021/12/06 00:22:11;;;;;;;;;31.75;28.25;;;;;4.62;99.08;101241.66;5029779;28;11533;-67
2021/12/06 00:24:37;;;;;;;;;22.75;22.50;;;;;4.62;98.79;101241.66;5029613;28;11637;-68
2021/12/06 00:27:04;;;;;;;;;18.00;16.00;;;;;4.67;98.77;101245.75;5029824;28;12191;-69
2021/12/06 00:29:31;;;;;;;;;23.25;23.25;;;;;4.50;97.88;101241.97;5024394;28;11645;-69
2021/12/06 00:31:58;;;;;;;;;31.00;28.00;;;;;4.60;98.51;101240.97;5028896;28;11537;-69
2021/12/06 00:34:32;;;;;;;;;41.00;29.00;;;;;4.61;98.19;101255.22;5031715;28;12213;-71
2021/12/06 00:37:15;;;;;;;;;26.25;23.25;;;;;4.60;97.91;101256.19;5033824;28;11553;-68
2021/12/06 00:39:45;;;;;;;;;26.25;21.75;;;;;4.63;97.75;101264.81;5032368;28;11512;-68
2021/12/06 00:42:12;;;;;;;;;35.00;24.50;;;;;4.64;97.35;101266.50;5033085;28;11504;-69
2021/12/06 00:44:38;;;;;;;;;25.25;20.25;;;;;4.67;97.09;101268.06;5032866;28;11606;-69
2021/12/06 00:47:05;;;;;;;;;23.00;22.75;;;;;4.73;97.43;101267.50;5029864;28;12235;-70
2021/12/06 00:49:33;;;;;;;;;32.50;30.50;;;;;4.69;96.66;101270.59;5044046;28;11500;-69
2021/12/06 00:51:59;;;;;;;;;27.75;26.50;;;;;4.58;95.82;101267.06;5025074;28;11528;-69
2021/12/06 00:54:26;;;;;;;;;30.25;27.50;;;;;4.53;95.19;101271.16;5031850;28;11514;-69
2021/12/06 00:56:53;;;;;;;;;29.50;20.75;;;;;4.60;95.73;101272.28;5032810;28;11544;-68
2021/12/06 00:59:19;;;;;;;;;25.00;23.00;;;;;4.63;95.92;101270.19;5032540;28;11589;-69
2021/12/06 01:01:46;;;;;;;;;24.50;20.25;;;;;4.64;95.54;101273.69;5031205;28;11496;-69
2021/12/06 01:04:15;;;;;;;;;26.00;26.00;;;;;4.55;95.88;101271.88;5028070;28;11662;-68
2021/12/06 01:06:42;;;;;;;;;34.25;27.00;;;;;4.46;97.04;101280.72;5014551;28;11537;-70
2021/12/06 01:09:08;;;;;;;;;37.00;25.00;;;;;4.57;98.30;101277.94;5008333;28;11558;-69
2021/12/06 01:11:35;;;;;;;;;26.25;24.75;;;;;4.66;98.07;101278.91;5031421;28;11629;-68
2021/12/06 01:14:03;;;;;;;;;25.50;22.00;;;;;4.68;98.29;101280.47;5031478;28;11558;-68
2021/12/06 01:16:30;;;;;;;;;29.00;26.50;;;;;4.66;98.60;101281.59;5031009;28;11513;-69
2021/12/06 01:18:57;;;;;;;;;29.50;22.50;;;;;4.69;98.51;101284.84;5021818;28;11543;-69
2021/12/06 01:21:39;;;;;;;;;35.50;26.50;;;;;4.65;98.00;101286.13;5027196;28;11555;-69
2021/12/06 01:24:09;;;;;;;;;29.75;24.00;;;;;4.64;98.28;101289.78;5027925;28;12311;-68
2021/12/06 01:30:00;;;;;;;;;36.00;23.75;;;;;4.70;98.45;101297.28;5031067;28;11523;-68
2021/12/06 01:40:04;;;;;;;;;22.25;17.25;;;;;4.74;98.17;101306.75;5032493;28;11500;-69
2021/12/06 01:42:31;;;;;;;;;23.25;17.75;;;;;4.82;98.01;101306.03;5030813;28;11537;-67
2021/12/06 01:44:59;;;;;;;;;19.75;16.75;;;;;4.81;97.85;101309.72;5013745;28;11510;-68
2021/12/06 01:47:36;;;;;;;;;24.50;21.00;;;;;4.79;97.60;101312.53;5030782;28;11501;-68
2021/12/06 01:50:27;;;;;;;;;21.25;17.75;;;;;4.78;98.11;101305.47;5028336;28;11658;-68
2021/12/06 01:52:58;;;;;;;;;16.00;14.00;;;;;4.79;97.96;101307.19;5021311;28;11557;-69
2021/12/06 01:55:30;;;;;;;;;24.25;19.00;;;;;4.76;97.63;101304.78;5030766;28;11508;-68
2021/12/06 01:57:58;;;;;;;;;21.25;18.25;;;;;4.70;98.04;101313.34;5030692;28;11588;-69
2021/12/06 02:00:47;;;;;;;;;22.75;17.00;;;;;4.73;98.13;101318.47;5031181;28;11509;-69
2021/12/06 02:03:20;;;;;;;;;16.00;14.00;;;;;4.73;98.22;101314.94;5031239;28;11551;-69
2021/12/06 02:05:48;;;;;;;;;22.75;18.50;;;;;4.72;98.06;101321.28;5026519;28;11499;-68
2021/12/06 02:08:19;;;;;;;;;31.50;24.50;;;;;4.60;98.01;101325.91;5014818;28;11600;-68
2021/12/06 02:10:46;;;;;;;;;36.50;25.75;;;;;4.56;97.98;101327.19;5013732;28;12596;-70
2021/12/06 02:13:18;;;;;;;;;25.50;20.50;;;;;4.69;98.59;101330.44;5028268;28;11542;-70
2021/12/06 02:15:50;;;;;;;;;26.25;18.50;;;;;4.66;98.22;101325.34;5020087;28;12246;-69
2021/12/06 02:21:10;;;;;;;;;25.00;22.75;;;;;4.61;98.19;101317.72;5014527;28;12303;-69
2021/12/06 02:23:37;;;;;;;;;21.75;18.50;;;;;4.64;98.53;101319.28;5030231;28;11296;-69
2021/12/06 02:26:04;;;;;;;;;25.00;19.00;;;;;4.59;97.76;101319.72;5030393;28;11547;-68
2021/12/06 02:28:30;;;;;;;;;23.75;16.75;;;;;4.56;97.85;101317.31;5028830;28;11507;-69
2021/12/06 02:30:58;;;;;;;;;20.50;16.00;;;;;4.51;97.60;101324.94;5024713;28;12151;-68
2021/12/06 02:33:25;;;;;;;;;26.00;19.50;;;;;4.53;97.79;101319.41;5031246;28;11323;-68
2021/12/06 02:35:53;;;;;;;;;26.75;22.25;;;;;4.46;97.71;101316.47;5013261;28;11547;-69
2021/12/06 02:38:20;;;;;;;;;31.00;23.00;;;;;4.47;97.79;101328.03;5029587;28;11523;-68
2021/12/06 02:40:47;;;;;;;;;20.00;17.50;;;;;4.34;97.42;101322.91;5029506;28;11520;-70
2021/12/06 02:43:14;;;;;;;;;19.50;15.00;;;;;4.46;97.87;101319.13;5008047;28;11506;-69
2021/12/06 02:45:42;;;;;;;;;21.00;17.00;;;;;4.45;97.37;101324.59;5026310;28;11593;-69
2021/12/06 02:48:12;;;;;;;;;20.50;20.00;;;;;4.42;97.27;101320.38;5028732;28;12299;-69
2021/12/06 02:50:52;;;;;;;;;21.25;20.25;;;;;4.43;97.13;101316.69;5013393;28;11533;-69
2021/12/06 02:53:21;;;;;;;;;22.00;20.25;;;;;4.38;96.99;101321.63;5021676;28;11512;-70
2021/12/06 02:55:53;;;;;;;;;22.75;16.00;;;;;4.32;97.47;101314.16;5043862;28;11595;-69
2021/12/06 03:01:14;;;;;;;;;24.75;22.25;;;;;4.33;96.92;101326.56;5029576;28;11631;-69
2021/12/06 03:03:42;;;;;;;;;18.75;17.50;;;;;4.35;97.32;101315.72;5029406;28;11532;-70
2021/12/06 03:06:11;;;;;;;;;32.25;21.25;;;;;4.20;96.87;101313.38;5028503;28;11519;-69
2021/12/06 03:08:38;;;;;;;;;37.25;24.75;;;;;4.17;97.32;101313.66;5026885;28;11550;-69
2021/12/06 03:11:14;;;;;;;;;24.00;19.25;;;;;4.32;97.64;101311.47;5029142;28;11527;-69
2021/12/06 03:13:41;;;;;;;;;22.75;17.00;;;;;4.37;97.34;101311.06;5030585;28;11509;-69
2021/12/06 03:16:09;;;;;;;;;23.75;21.50;;;;;4.18;96.96;101320.72;5029340;28;11514;-69
2021/12/06 03:18:36;;;;;;;;;23.00;18.75;;;;;4.25;97.76;101315.69;5028435;28;11509;-70
2021/12/06 03:21:04;;;;;;;;;17.00;15.25;;;;;4.30;97.47;101326.84;5024796;28;11558;-69
2021/12/06 03:23:30;;;;;;;;;28.00;24.25;;;;;4.35;97.43;101327.28;5025889;28;11501;-69
2021/12/06 03:25:58;;;;;;;;;20.50;14.00;;;;;4.44;97.64;101326.44;5028726;28;11562;-69
2021/12/06 03:28:25;;;;;;;;;16.75;14.25;;;;;4.44;97.45;101323.75;5028805;28;11313;-69
2021/12/06 03:30:52;;;;;;;;;15.50;15.50;;;;;4.45;97.07;101321.94;5029043;28;11290;-70
2021/12/06 03:33:19;;;;;;;;;15.50;13.25;;;;;4.46;97.09;101321.81;5011881;28;11491;-69
2021/12/06 03:35:46;;;;;;;;;18.25;14.25;;;;;4.46;97.01;101321.81;5011257;28;11379;-70
2021/12/06 03:38:13;;;;;;;;;17.75;15.25;;;;;4.45;96.99;101327.28;5015764;28;11520;-69
2021/12/06 03:40:39;;;;;;;;;18.25;16.00;;;;;4.44;96.97;101329.13;5010571;28;11481;-69
2021/12/06 03:43:06;;;;;;;;;13.75;13.75;;;;;4.50;97.46;101325.06;5024953;28;11499;-70
2021/12/06 03:45:36;;;;;;;;;14.25;13.25;;;;;4.56;97.32;101322.66;5012419;28;11496;-70
2021/12/06 03:48:04;;;;;;;;;17.50;13.25;;;;;4.52;97.08;101326.63;5011324;28;11160;-69
2021/12/06 03:50:30;;;;;;;;;21.50;17.75;;;;;4.53;96.95;101327.47;5019299;28;11535;-70
2021/12/06 03:52:57;;;;;;;;;16.25;14.75;;;;;4.54;96.73;101323.81;5009101;28;11366;-69
2021/12/06 03:55:24;;;;;;;;;22.00;17.00;;;;;4.48;96.48;101317.16;5015838;28;11940;-69
2021/12/06 03:57:51;;;;;;;;;14.25;13.75;;;;;4.48;96.55;101321.69;5028814;28;11537;-70
2021/12/06 04:00:18;;;;;;;;;19.00;17.00;;;;;4.44;96.50;101313.03;5028626;28;11515;-68
2021/12/06 04:02:52;;;;;;;;;20.25;17.50;;;;;4.51;97.11;101316.03;5026093;28;11593;-69
2021/12/06 04:05:21;;;;;;;;;24.25;18.75;;;;;4.48;96.92;101321.69;5017205;28;11545;-69
2021/12/06 04:07:48;;;;;;;;;14.00;12.00;;;;;4.47;97.03;101311.94;5021113;28;12238;-70
2021/12/06 04:10:15;;;;;;;;;21.75;17.50;;;;;4.43;96.55;101319.38;5016806;28;11502;-69
2021/12/06 04:12:42;;;;;;;;;23.50;18.75;;;;;4.45;96.83;101319.25;5023913;28;12215;-69
2021/12/06 04:15:12;;;;;;;;;23.75;21.25;;;;;4.45;96.76;101321.94;5032022;28;11527;-69
2021/12/06 04:17:40;;;;;;;;;24.25;19.25;;;;;4.46;97.05;101332.53;5032307;28;12272;-69
2021/12/06 04:20:10;;;;;;;;;21.50;15.50;;;;;4.44;96.96;101329.13;5033502;28;11525;-69
2021/12/06 04:22:38;;;;;;;;;12.75;11.50;;;;;4.43;96.74;101339.97;5032300;28;12295;-68
2021/12/06 04:25:09;;;;;;;;;17.25;15.25;;;;;4.45;96.98;101327.28;5029284;28;11242;-69
2021/12/06 04:27:38;;;;;;;;;22.00;16.00;;;;;4.40;97.09;101330.38;5006918;28;11492;-69
2021/12/06 04:30:08;;;;;;;;;16.75;12.25;;;;;4.41;97.70;101328.56;5037010;28;11545;-69
2021/12/06 04:32:35;;;;;;;;;21.75;18.50;;;;;4.38;97.34;101331.50;5012145;28;11512;-69
2021/12/06 04:35:03;;;;;;;;;23.00;20.50;;;;;4.31;97.22;101328.53;5012343;28;11554;-70
2021/12/06 04:37:30;;;;;;;;;17.75;16.00;;;;;4.29;97.16;101323.31;5023806;28;11579;-69
2021/12/06 04:39:56;;;;;;;;;25.50;21.00;;;;;4.27;97.06;101333.31;5031280;28;11565;-70
2021/12/06 04:42:23;;;;;;;;;21.75;19.00;;;;;4.28;97.12;101334.19;5023065;28;11532;-69
2021/12/06 04:44:50;;;;;;;;;19.50;18.75;;;;;4.25;97.07;101332.63;5020345;28;11583;-70
2021/12/06 04:47:18;;;;;;;;;26.50;20.25;;;;;4.29;97.35;101335.88;5031701;28;11517;-68
2021/12/06 04:49:44;;;;;;;;;20.50;19.25;;;;;4.26;97.29;101334.31;5033017;28;11552;-70
2021/12/06 04:52:13;;;;;;;;;21.00;18.00;;;;;4.24;97.18;101336.28;5031669;28;11526;-68
2021/12/06 04:54:44;;;;;;;;;22.50;19.75;;;;;4.24;97.41;101340.78;5031766;28;11571;-71
2021/12/06 04:57:19;;;;;;;;;32.50;19.50;;;;;4.22;97.63;101330.22;5025916;28;11519;-70
2021/12/06 04:59:51;;;;;;;;;24.00;18.75;;;;;4.23;97.51;101326.53;5031285;28;12349;-68
2021/12/06 05:02:28;;;;;;;;;19.25;15.50;;;;;4.27;97.55;101319.09;5031725;28;11500;-70
2021/12/06 05:05:01;;;;;;;;;23.25;17.75;;;;;4.25;97.54;101321.06;5030546;28;11510;-70
2021/12/06 05:07:35;;;;;;;;;17.50;15.25;;;;;4.26;97.53;101325.44;5023205;28;11285;-69
2021/12/06 05:10:06;;;;;;;;;14.25;11.75;;;;;4.22;97.66;101313.28;5030957;28;12371;-69
2021/12/06 05:12:34;;;;;;;;;32.25;25.00;;;;;4.14;97.64;101318.47;5031564;28;12261;-69
2021/12/06 05:15:03;;;;;;;;;31.00;22.25;;;;;4.16;97.80;101316.47;5031340;28;11545;-69
2021/12/06 05:17:30;;;;;;;;;26.25;18.50;;;;;4.14;98.01;101318.47;5031063;28;12285;-69
2021/12/06 05:19:59;;;;;;;;;25.25;23.00;;;;;4.24;98.48;101320.19;5028505;28;11539;-69
2021/12/06 05:22:27;;;;;;;;;27.00;21.00;;;;;4.24;98.23;101322.88;5021592;28;12328;-70
2021/12/06 05:24:54;;;;;;;;;21.00;19.25;;;;;4.20;98.09;101325.94;5011503;28;11532;-70
2021/12/06 05:27:27;;;;;;;;;21.00;19.75;;;;;4.17;98.04;101329.75;5012485;28;11622;-69
2021/12/06 05:29:59;;;;;;;;;25.75;20.00;;;;;4.14;98.10;101335.38;5020188;28;11578;-70
2021/12/06 05:32:30;;;;;;;;;26.25;21.75;;;;;4.07;98.10;101339.59;5030670;28;11526;-70
2021/12/06 05:35:03;;;;;;;;;26.25;22.50;;;;;4.12;98.61;101342.72;5039252;28;11540;-69
2021/12/06 05:37:31;;;;;;;;;28.75;23.50;;;;;4.09;98.71;101340.31;5031608;28;11519;-70
2021/12/06 05:39:58;;;;;;;;;23.75;21.75;;;;;4.07;98.69;101344.94;5032047;28;11500;-69
2021/12/06 05:42:26;;;;;;;;;29.00;21.75;;;;;3.97;98.47;101344.06;5032730;28;11496;-69
2021/12/06 05:44:53;;;;;;;;;26.75;23.25;;;;;4.03;99.08;101338.16;5032055;28;11518;-70
2021/12/06 05:47:19;;;;;;;;;23.75;22.75;;;;;3.98;99.00;101338.56;5031328;28;11614;-68
2021/12/06 05:49:46;;;;;;;;;26.25;19.75;;;;;3.98;99.21;101335.06;5030833;28;11626;-68
2021/12/06 05:52:12;;;;;;;;;26.25;21.50;;;;;3.98;99.41;101337.72;5029670;28;11520;-69
2021/12/06 05:54:39;;;;;;;;;28.75;23.50;;;;;3.92;99.42;101341.78;5010569;28;11666;-68
2021/12/06 05:57:08;;;;;;;;;34.00;28.50;;;;;3.86;99.27;101349.50;5020964;28;11499;-67
2021/12/06 05:59:34;;;;;;;;;20.75;15.00;;;;;3.79;99.66;101348.34;5029823;28;11484;-67
2021/12/06 06:02:01;;;;;;;;;23.00;20.00;;;;;3.74;99.50;101359.47;5025831;28;11529;-68
2021/12/06 06:04:28;;;;;;;;;26.75;20.25;;;;;3.69;99.86;101361.66;5012093;28;11528;-68
2021/12/06 06:06:54;;;;;;;;;31.25;21.00;;;;;3.71;100.00;101357.00;5035830;28;11548;-69
2021/12/06 06:09:21;;;;;;;;;35.00;28.00;;;;;3.66;100.00;101352.06;5014492;28;11537;-69
2021/12/06 06:11:47;;;;;;;;;27.25;26.25;;;;;3.66;100.00;101352.06;5046927;28;11523;-68
2021/12/06 06:14:15;;;;;;;;;24.75;23.00;;;;;3.66;100.00;101345.84;5031950;28;11569;-70
2021/12/06 06:16:50;;;;;;;;;37.75;25.25;;;;;3.65;100.00;101352.19;5027728;28;11545;-70
2021/12/06 06:19:22;;;;;;;;;26.00;20.25;;;;;3.65;100.00;101354.88;5022704;28;12464;-68
2021/12/06 06:21:50;;;;;;;;;33.75;28.00;;;;;3.66;100.00;101357.41;5024540;28;12227;-68
2021/12/06 06:24:17;;;;;;;;;35.50;28.25;;;;;3.64;100.00;101361.22;5032701;28;11555;-68
2021/12/06 06:26:44;;;;;;;;;26.50;24.25;;;;;3.65;100.00;101363.75;5030790;28;11600;-69
2021/12/06 06:29:11;;;;;;;;;39.75;29.25;;;;;3.68;100.00;101360.81;5029133;28;11602;-69
2021/12/06 06:31:39;;;;;;;;;24.00;21.50;;;;;3.67;100.00;101356.44;5031114;28;12333;-69
2021/12/06 06:34:06;;;;;;;;;29.00;21.00;;;;;3.73;100.00;101370.31;5026899;28;11538;-69
2021/12/06 06:36:35;;;;;;;;;25.50;20.00;;;;;3.76;100.00;101368.19;5040153;22;11618;-69
2021/12/06 06:39:05;;;;;;;;;34.00;28.50;;;;;3.74;100.00;101363.97;5029035;28;11524;-69
2021/12/06 06:41:31;;;;;;;;;24.00;19.50;;;;;3.64;100.00;101372.75;5031237;28;11520;-69
2021/12/06 06:43:59;;;;;;;;;28.00;23.00;;;;;3.64;100.00;101374.59;5025818;28;11599;-69
2021/12/06 06:46:25;;;;;;;;;38.50;33.00;;;;;3.62;100.00;101376.56;5027962;28;11517;-69
2021/12/06 06:48:52;;;;;;;;;27.75;26.25;;;;;3.58;100.00;101372.44;5009790;28;12332;-71
2021/12/06 06:51:19;;;;;;;;;23.00;21.25;;;;;3.61;100.00;101372.19;5011085;28;11510;-70
2021/12/06 06:53:46;;;;;;;;;32.25;27.00;;;;;3.59;100.00;101376.81;5021863;28;11597;-69
2021/12/06 06:56:12;;;;;;;;;33.00;28.75;;;;;3.66;100.00;101377.97;5030928;28;11587;-70
2021/12/06 06:58:39;;;;;;;;;32.50;28.00;;;;;3.66;100.00;101375.31;5026624;28;11580;-70
2021/12/06 07:01:05;;;;;;;;;32.00;24.00;;;;;3.64;100.00;101374.59;5030011;28;11640;-69
2021/12/06 07:03:32;;;;;;;;;41.50;31.25;;;;;3.62;100.00;101380.09;5028824;28;12294;-70
2021/12/06 07:06:02;;;;;;;;;37.50;30.25;;;;;3.60;100.00;101382.03;5028676;28;11554;-70
2021/12/06 07:08:29;;;;;;;;;36.50;29.25;;;;;3.64;100.00;101375.44;5030266;28;11536;-71
2021/12/06 07:10:56;;;;;;;;;32.50;28.75;;;;;3.62;100.00;101372.03;5029665;28;11546;-70
2021/12/06 07:13:26;;;;;;;;;40.75;32.75;;;;;3.65;100.00;101385.16;5030316;28;11521;-71
2021/12/06 07:15:54;;;;;;;;;26.50;20.25;;;;;3.62;100.00;101369.38;5030351;28;11581;-70
2021/12/06 07:18:21;;;;;;;;;27.50;23.50;;;;;3.63;100.00;101375.56;5029146;28;11534;-70
2021/12/06 07:20:47;;;;;;;;;38.25;34.50;;;;;3.57;100.00;101374.28;5029287;28;12307;-70
2021/12/06 07:23:14;;;;;;;;;43.75;32.25;;;;;3.78;100.00;101368.91;5022822;28;11623;-70
2021/12/06 07:25:40;;;;;;;;;32.00;24.25;;;;;3.74;100.00;101364.81;5024702;28;11678;-70
2021/12/06 07:28:07;;;;;;;;;27.75;22.00;;;;;3.56;100.00;101364.53;5015740;28;12263;-69
2021/12/06 07:30:34;;;;;;;;;39.75;33.00;;;;;3.60;100.00;101371.34;5023875;28;11511;-69
2021/12/06 07:33:00;;;;;;;;;34.75;28.25;;;;;3.61;100.00;101364.16;5026683;28;11564;-70
2021/12/06 07:35:29;;;;;;;;;26.75;23.00;;;;;3.67;100.00;101358.25;5025817;28;11749;-70
2021/12/06 07:37:56;;;;;;;;;32.25;23.25;;;;;3.71;100.00;101354.34;5025389;28;11530;-69
2021/12/06 07:40:23;;;;;;;;;33.25;28.25;;;;;3.70;100.00;101350.81;5017116;28;11599;-69
2021/12/06 07:42:50;;;;;;;;;31.75;30.75;;;;;3.77;100.00;101364.53;5025611;28;11516;-69
2021/12/06 07:45:17;;;;;;;;;37.25;30.00;;;;;3.71;100.00;101368.56;5019093;28;11550;-70
2021/12/06 07:47:44;;;;;;;;;33.00;25.25;;;;;3.66;100.00;101369.94;5026346;28;11574;-70
2021/12/06 07:50:16;;;;;;;;;34.75;30.00;;;;;3.62;100.00;101355.13;5027317;28;11605;-71
2021/12/06 07:52:48;;;;;;;;;25.75;22.25;;;;;3.61;100.00;101356.97;5028319;28;11680;-70
2021/12/06 07:55:16;;;;;;;;;31.50;29.75;;;;;3.60;100.00;101362.44;5029863;28;11516;-70
2021/12/06 07:57:44;;;;;;;;;33.75;27.25;;;;;3.60;100.00;101360.63;5029365;28;12242;-70
2021/12/06 08:00:18;;;;;;;;;28.00;21.00;;;;;3.68;100.00;101363.47;5013951;28;11646;-69
2021/12/06 08:02:44;;;;;;;;;36.00;31.75;;;;;3.64;100.00;101359.38;5022373;28;11509;-69
2021/12/06 08:05:30;;;;;;;;;31.50;28.00;;;;;3.85;100.00;101366.53;5027203;28;11587;-69
2021/12/06 08:07:58;;;;;;;;;27.75;27.75;;;;;3.78;100.00;101358.19;5042614;28;11660;-71
2021/12/06 08:10:25;;;;;;;;;31.25;24.00;;;;;3.75;100.00;101360.31;5025814;28;11491;-70
2021/12/06 08:12:52;;;;;;;;;28.25;24.75;;;;;3.57;99.30;101352.84;5027133;28;11605;-70
2021/12/06 08:15:19;;;;;;;;;43.25;32.50;;;;;3.65;99.82;101361.06;5025043;28;11520;-70
2021/12/06 08:17:46;;;;;;;;;37.50;32.50;;;;;3.61;99.44;101350.75;5018167;28;11603;-70
2021/12/06 08:20:13;;;;;;;;;34.75;29.00;;;;;3.57;99.10;101350.19;5015403;28;11615;-70
2021/12/06 08:22:43;;;;;;;;;35.00;25.25;;;;;3.63;99.64;101351.47;5016515;28;11585;-70
2021/12/06 08:25:12;;;;;;;;;34.25;27.50;;;;;3.66;99.68;101357.41;5018107;28;11584;-69
2021/12/06 08:27:38;;;;;;;;;48.25;36.50;;;;;3.65;99.65;101350.38;5021858;28;11657;-70
2021/12/06 08:30:06;;;;;;;;;36.75;29.00;;;;;3.66;99.43;101362.78;5021720;28;11650;-70
2021/12/06 08:32:33;;;;;;;;;38.50;29.00;;;;;3.67;99.61;101371.66;5021993;28;11672;-69
2021/12/06 08:35:18;;;;;;;;;40.75;26.50;;;;;3.88;100.00;101383.19;5025059;28;11503;-70
2021/12/06 08:37:45;;;;;;;;;35.75;31.50;;;;;3.72;99.73;101372.13;5026800;28;11610;-70
2021/12/06 08:40:15;;;;;;;;;36.25;33.00;;;;;3.75;99.59;101379.03;5022736;28;11686;-70
2021/12/06 08:42:42;;;;;;;;;39.00;36.00;;;;;3.74;99.28;101383.56;5027761;28;11588;-69
2021/12/06 08:45:10;;;;;;;;;38.50;30.25;;;;;3.77;99.62;101387.78;5017198;28;11581;-70
2021/12/06 08:47:38;;;;;;;;;38.25;33.25;;;;;3.75;99.51;101387.06;5026472;28;11675;-69
2021/12/06 08:50:09;;;;;;;;;36.25;30.50;;;;;3.75;99.32;101404.00;5026319;28;11621;-69
2021/12/06 08:52:37;;;;;;;;;27.50;25.75;;;;;3.75;99.21;101401.31;5027136;28;11581;-71
2021/12/06 08:55:06;;;;;;;;;28.25;27.50;;;;;3.76;99.18;101394.97;5026642;28;11530;-69
2021/12/06 08:57:34;;;;;;;;;30.50;21.50;;;;;3.83;99.37;101387.25;5023743;28;11543;-70
2021/12/06 09:00:00;;;;;;;;;26.50;24.75;;;;;3.77;98.98;101375.25;5020550;28;11495;-70
2021/12/06 09:02:27;;;;;;;;;36.50;29.25;;;;;3.82;99.18;101380.22;5020669;28;11528;-72
2021/12/06 09:05:14;;;;;;;;;39.00;32.25;;;;;3.88;99.32;101387.69;5022700;28;11671;-70
2021/12/06 09:07:40;;;;;;;;;47.50;41.25;;;;;3.78;98.58;101384.97;5019872;28;12295;-69
2021/12/06 09:10:10;;;;;;;;;53.50;40.00;;;;;3.76;98.92;101389.63;5017273;28;11593;-70
2021/12/06 09:12:38;;;;;;;;;44.25;34.25;;;;;3.76;98.90;101389.63;5020165;28;12647;-69
2021/12/06 09:15:10;;;;;;;;;37.75;37.75;;;;;3.74;99.15;101390.75;5021103;28;11586;-72
2021/12/06 09:17:39;;;;;;;;;33.50;29.50;;;;;3.76;99.10;101391.44;5015962;28;11568;-69
2021/12/06 09:20:09;;;;;;;;;47.50;35.75;;;;;3.77;99.21;101385.97;5018397;28;11599;-72
2021/12/06 09:22:37;;;;;;;;;40.50;36.00;;;;;3.78;99.29;101379.63;5018516;28;11684;-70
2021/12/06 09:25:06;;;;;;;;;43.25;34.75;;;;;3.79;99.51;101377.78;5017758;28;11729;-69
2021/12/06 09:27:33;;;;;;;;;44.50;40.00;;;;;3.78;99.46;101376.94;5028211;28;11674;-68
2021/12/06 09:29:59;;;;;;;;;35.00;32.25;;;;;3.78;99.32;101381.47;5027457;28;12306;-70
2021/12/06 09:32:26;;;;;;;;;55.00;36.75;;;;;3.77;99.16;101382.44;5028179;28;11693;-69
2021/12/06 09:34:57;;;;;;;;;37.00;35.25;;;;;3.77;99.37;101372.56;5027838;28;11622;-70
2021/12/06 09:37:24;;;;;;;;;42.75;35.00;;;;;3.75;99.14;101368.34;5029400;28;11690;-70
2021/12/06 09:39:52;;;;;;;;;47.50;39.75;;;;;3.74;99.20;101364.81;5024240;28;11563;-69
2021/12/06 09:42:19;;;;;;;;;45.25;35.50;;;;;3.78;99.21;101376.09;5021488;28;12862;-68
2021/12/06 09:44:46;;;;;;;;;41.50;34.25;;;;;3.81;99.58;101382.03;5019430;28;11593;-69
2021/12/06 09:47:13;;;;;;;;;37.25;33.25;;;;;3.82;99.60;101383.72;5015090;28;11612;-69
2021/12/06 09:49:40;;;;;;;;;42.00;35.25;;;;;3.83;99.39;101385.44;5017547;28;11619;-70
2021/12/06 09:52:07;;;;;;;;;51.75;39.50;;;;;3.78;99.12;101389.50;5019334;28;11618;-69
2021/12/06 09:54:36;;;;;;;;;42.75;36.75;;;;;3.75;98.98;101377.22;5019499;28;11641;-69
2021/12/06 09:57:07;;;;;;;;;45.25;40.00;;;;;3.78;98.98;101373.44;5021447;28;11669;-71
2021/12/06 09:59:36;;;;;;;;;38.25;29.50;;;;;3.83;99.10;101372.03;5016635;28;11598;-70
2021/12/06 10:02:08;;;;;;;;;39.75;35.75;;;;;3.86;99.00;101358.38;5020542;28;11527;-69
2021/12/06 10:04:39;;;;;;;;;34.25;31.25;;;;;3.81;98.52;101349.91;5019374;28;11622;-68
2021/12/06 10:07:09;;;;;;;;;41.00;36.25;;;;;3.80;98.61;101347.34;5015511;28;12273;-70
2021/12/06 10:09:40;;;;;;;;;41.25;38.00;;;;;3.79;98.38;101346.50;5015952;28;11600;-70
2021/12/06 10:12:08;;;;;;;;;42.25;38.00;;;;;3.77;98.45;101363.69;5015245;28;11586;-70
2021/12/06 10:14:36;;;;;;;;;38.50;32.75;;;;;3.66;98.39;101362.78;5017157;28;12741;-68
2021/12/06 10:17:08;;;;;;;;;30.25;27.00;;;;;3.65;98.58;101366.44;5013991;28;11632;-68
2021/12/06 10:19:35;;;;;;;;;44.25;34.75;;;;;3.69;98.79;101356.31;5018980;28;11505;-69
2021/12/06 10:22:02;;;;;;;;;27.50;24.00;;;;;3.74;98.89;101347.91;5017576;28;11670;-70
2021/12/06 10:24:30;;;;;;;;;30.50;30.25;;;;;3.82;99.27;101340.88;5021857;28;11714;-69
2021/12/06 10:27:11;;;;;;;;;39.50;27.50;;;;;3.87;98.89;101335.13;5019195;28;11598;-68
2021/12/06 10:29:44;;;;;;;;;44.00;31.75;;;;;3.78;98.63;101318.03;5021073;28;11556;-68
2021/12/06 10:32:25;;;;;;;;;41.25;33.25;;;;;3.82;98.73;101315.94;5016139;28;11593;-68
2021/12/06 10:35:01;;;;;;;;;40.50;39.00;;;;;3.82;98.55;101313.25;5017352;28;11595;-68
2021/12/06 10:37:45;;;;;;;;;59.00;40.50;;;;;3.80;98.47;101317.91;5017736;28;11610;-68
2021/12/06 10:40:21;;;;;;;;;48.25;37.75;;;;;3.83;98.64;101312.28;5015927;28;11672;-67
2021/12/06 10:42:50;;;;;;;;;51.00;40.75;;;;;3.83;98.74;101296.22;5018853;28;11686;-69
2021/12/06 10:45:33;;;;;;;;;45.50;37.00;;;;;3.87;98.70;101290.44;5015815;28;11606;-69
2021/12/06 10:48:33;;;;;;;;;49.50;38.75;;;;;3.84;98.37;101284.50;5016493;28;11622;-69
2021/12/06 10:51:06;;;;;;;;;54.50;47.25;;;;;3.81;98.16;101271.38;5016531;28;11585;-68
2021/12/06 10:53:56;;;;;;;;;53.75;41.50;;;;;3.77;97.91;101267.28;5018001;28;11751;-68
2021/12/06 10:56:31;;;;;;;;;58.50;44.00;;;;;3.81;97.87;101258.84;5017989;28;11581;-69
2021/12/06 10:59:03;;;;;;;;;47.25;42.00;;;;;3.84;97.71;101250.53;5022547;28;11655;-69
2021/12/06 11:01:32;;;;;;;;;47.75;41.00;;;;;3.84;97.71;101247.00;5018232;28;11624;-68
2021/12/06 11:04:03;;;;;;;;;60.75;48.25;;;;;3.81;97.39;101255.31;5016742;28;11604;-69
2021/12/06 11:06:43;;;;;;;;;51.75;43.75;;;;;3.81;97.23;101245.47;5019258;28;11577;-68
2021/12/06 11:09:23;;;;;;;;;46.50;35.50;;;;;3.84;97.20;101241.66;5019746;28;11803;-70
2021/12/06 11:11:53;;;;;;;;;52.75;42.25;;;;;3.88;96.81;101238.56;5019655;28;11562;-68
2021/12/06 11:14:23;;;;;;;;;43.50;40.50;;;;;3.89;96.21;101234.06;5013816;28;11616;-70
2021/12/06 11:16:58;;;;;;;;;60.50;43.75;;;;;3.92;95.83;101225.75;5016290;28;11596;-68
2021/12/06 11:19:26;;;;;;;;;60.50;40.25;;;;;3.99;95.76;101219.72;5017248;28;12366;-68
2021/12/06 11:21:56;;;;;;;;;58.25;45.50;;;;;3.95;95.49;101218.28;5018212;28;11657;-68
2021/12/06 11:24:41;;;;;;;;;53.50;44.50;;;;;3.97;94.75;101226.22;5015010;28;11727;-67
2021/12/06 11:27:20;;;;;;;;;50.25;40.00;;;;;4.00;94.29;101223.25;5017152;28;11603;-69
2021/12/06 11:30:04;;;;;;;;;55.00;46.75;;;;;3.97;94.36;101220.84;5019150;28;11576;-67
2021/12/06 11:32:44;;;;;;;;;61.00;44.25;;;;;4.05;94.69;101215.66;5019925;28;12339;-67
2021/12/06 11:35:15;;;;;;;;;56.50;44.25;;;;;4.06;94.31;101201.25;5016119;28;11654;-68
2021/12/06 11:37:46;;;;;;;;;42.50;33.75;;;;;4.13;94.42;101196.19;5021477;28;11635;-68
2021/12/06 11:40:29;;;;;;;;;47.75;35.25;;;;;4.13;94.11;101199.72;5016428;28;11682;-68
2021/12/06 11:43:06;;;;;;;;;53.00;42.25;;;;;4.15;93.65;101202.25;5022760;28;11668;-68
2021/12/06 11:45:52;;;;;;;;;45.75;34.00;;;;;4.24;92.86;101188.88;5021197;28;11592;-69